Time;durP1;ratioP1;P1;durP2;ratioP2;P2;SDS_P1;SDS_P2;PMS_P1;PMS_P2;Temp;Humidity;BMP_temperature;BMP_pressure;BME280_temperature;BME280_humidity;BME280_pressure;Samples;Min_cycle;Max_cycle;Signal;HPM_P1;HPM_P2
2023/09/15 00:01:32;;;;;;;;;;;;;;;12.02;100.00;102125.25;5049227;28;19928;-80
2023/09/15 00:04:21;;;;;;;;;;;;;;;11.98;100.00;102135.06;5074650;28;19929;-81
2023/09/15 00:07:08;;;;;;;;;;;;;;;11.95;100.00;102125.44;5054351;28;20001;-80
2023/09/15 00:09:55;;;;;;;;;;;;;;;11.94;100.00;102133.47;5064238;28;19934;-81
2023/09/15 00:12:42;;;;;;;;;;;;;;;11.93;100.00;102121.09;5051781;28;20523;-81
2023/09/15 00:15:28;;;;;;;;;;;;;;;11.91;100.00;102125.56;5062604;28;19935;-80
2023/09/15 00:18:13;;;;;;;;;;;;;;;11.89;100.00;102119.44;5061164;28;20211;-82
2023/09/15 00:20:59;;;;;;;;;;;;;;;11.87;100.00;102121.28;5049428;28;19932;-81
2023/09/15 00:23:45;;;;;;;;;;;;;;;11.84;100.00;102121.38;5051322;28;19937;-80
2023/09/15 00:26:30;;;;;;;;;;;;;;;11.80;100.00;102121.47;5066955;28;19932;-81
2023/09/15 00:29:16;;;;;;;;;;;;;;;11.77;100.00;102121.56;5064373;28;19928;-81
2023/09/15 00:32:02;;;;;;;;;;;;;;;11.75;100.00;102118.09;5063038;28;19956;-81
2023/09/15 00:34:48;;;;;;;;;;;;;;;11.74;100.00;102121.66;5064633;28;19963;-82
2023/09/15 00:37:33;;;;;;;;;;;;;;;11.72;100.00;102118.16;5047174;28;19928;-80
2023/09/15 00:40:20;;;;;;;;;;;;;;;11.72;100.00;102119.97;5060649;28;20371;-80
2023/09/15 00:43:05;;;;;;;;;;;;;;;11.69;100.00;102118.28;5056284;28;20263;-81
2023/09/15 00:45:51;;;;;;;;;;;;;;;11.66;100.00;102113.06;5043887;28;19928;-80
2023/09/15 00:48:39;;;;;;;;;;;;;;;11.64;100.00;102121.06;5056784;28;20067;-80
2023/09/15 00:51:25;;;;;;;;;;;;;;;11.62;100.00;102116.72;5032175;28;19934;-81
2023/09/15 00:54:12;;;;;;;;;;;;;;;11.59;100.00;102117.66;5045969;28;19942;-81
2023/09/15 00:56:59;;;;;;;;;;;;;;;11.58;100.00;102107.97;5054671;28;20552;-82
2023/09/15 00:59:45;;;;;;;;;;;;;;;11.57;100.00;102110.66;5053345;28;19968;-80
2023/09/15 01:02:32;;;;;;;;;;;;;;;11.53;100.00;102108.13;5061472;28;19924;-81
2023/09/15 01:05:23;;;;;;;;;;;;;;;11.52;100.00;102110.81;5060084;28;19928;-80
2023/09/15 01:08:08;;;;;;;;;;;;;;;11.51;100.00;102112.56;5049312;28;20016;-81
2023/09/15 01:10:54;;;;;;;;;;;;;;;11.48;100.00;102112.69;5047282;28;19933;-81
2023/09/15 01:13:40;;;;;;;;;;;;;;;11.45;100.00;102106.59;5049266;28;20590;-81
2023/09/15 01:16:39;;;;;;;;;;;;;;;11.43;100.00;102106.63;5057840;28;20008;-80
2023/09/15 01:19:39;;;;;;;;;;;;;;;11.39;100.00;102100.56;5045388;28;19978;-80
2023/09/15 01:22:44;;;;;;;;;;;;;;;11.36;100.00;102105.06;5030147;28;20149;-81
2023/09/15 01:25:29;;;;;;;;;;;;;;;11.35;100.00;102098.03;5049036;28;20014;-81
2023/09/15 01:28:34;;;;;;;;;;;;;;;11.34;100.00;102096.31;5049029;28;19924;-81
2023/09/15 01:31:20;;;;;;;;;;;;;;;11.33;100.00;102089.28;5060440;28;19932;-82
2023/09/15 01:34:05;;;;;;;;;;;;;;;11.32;100.00;102093.69;5048027;28;20000;-82
2023/09/15 01:36:53;;;;;;;;;;;;;;;11.31;100.00;102091.06;5047321;28;19932;-82
2023/09/15 01:39:40;;;;;;;;;;;;;;;11.30;100.00;102087.56;5063292;28;20812;-81
2023/09/15 01:42:26;;;;;;;;;;;;;;;11.28;100.00;102092.06;5059085;28;19928;-81
2023/09/15 01:45:12;;;;;;;;;;;;;;;11.27;100.00;102085.88;5048804;28;19978;-81
2023/09/15 01:47:57;;;;;;;;;;;;;;;11.25;100.00;102085.06;5046941;28;19971;-81
2023/09/15 01:50:43;;;;;;;;;;;;;;;11.23;100.00;102092.16;5049943;28;19936;-81
2023/09/15 01:53:29;;;;;;;;;;;;;;;11.21;100.00;102087.81;5059479;28;20082;-81
2023/09/15 01:56:15;;;;;;;;;;;;;;;11.19;100.00;102079.94;5058587;28;19932;-81
2023/09/15 01:59:01;;;;;;;;;;;;;;;11.18;100.00;102079.97;5060595;28;19935;-81
2023/09/15 02:01:47;;;;;;;;;;;;;;;11.17;100.00;102083.53;5043994;28;20564;-81
2023/09/15 02:04:32;;;;;;;;;;;;;;;11.16;100.00;102084.44;5060676;28;20383;-82
2023/09/15 02:07:18;;;;;;;;;;;;;;;11.13;100.00;102088.06;5060338;28;21498;-80
2023/09/15 02:10:04;;;;;;;;;;;;;;;11.13;100.00;102074.78;5061235;28;19935;-81
2023/09/15 02:12:50;;;;;;;;;;;;;;;11.11;100.00;102074.84;5061497;28;19932;-81
2023/09/15 02:15:35;;;;;;;;;;;;;;;11.08;100.00;102074.06;5061192;28;20052;-81
2023/09/15 02:18:22;;;;;;;;;;;;;;;11.07;100.00;102072.31;5059820;28;20042;-81
2023/09/15 02:21:07;;;;;;;;;;;;;;;11.05;100.00;102074.16;5044179;28;20011;-81
2023/09/15 02:23:53;;;;;;;;;;;;;;;11.03;100.00;102073.31;5045351;28;19932;-82
2023/09/15 02:26:39;;;;;;;;;;;;;;;11.03;100.00;102075.94;5047760;28;19928;-81
2023/09/15 02:29:25;;;;;;;;;;;;;;;11.00;100.00;102071.59;5045478;28;19935;-81
2023/09/15 02:32:11;;;;;;;;;;;;;;;10.99;100.00;102067.22;5062126;28;19928;-82
2023/09/15 02:34:56;;;;;;;;;;;;;;;10.97;100.00;102067.28;5059588;28;19928;-82
2023/09/15 02:37:42;;;;;;;;;;;;;;;10.97;100.00;102071.69;5051605;28;19927;-82
2023/09/15 02:40:28;;;;;;;;;;;;;;;10.95;100.00;102069.09;5059800;28;19995;-82
2023/09/15 02:43:14;;;;;;;;;;;;;;;10.94;100.00;102072.66;5059908;28;19935;-82
2023/09/15 02:46:06;;;;;;;;;;;;;;;10.91;100.00;102070.09;5047538;28;20902;-82
2023/09/15 02:48:52;;;;;;;;;;;;;;;10.90;100.00;102064.84;5063132;28;19936;-81
2023/09/15 02:51:37;;;;;;;;;;;;;;;10.86;100.00;102059.59;5050296;28;19976;-82
2023/09/15 02:54:23;;;;;;;;;;;;;;;10.86;100.00;102064.91;5062469;28;20363;-82
2023/09/15 02:57:12;;;;;;;;;;;;;;;10.84;100.00;102061.44;5062300;28;19979;-82
2023/09/15 02:59:57;;;;;;;;;;;;;;;10.82;100.00;102060.63;5051379;28;20004;-81
2023/09/15 03:02:44;;;;;;;;;;;;;;;10.78;100.00;102061.59;5036715;28;19981;-82
2023/09/15 03:05:29;;;;;;;;;;;;;;;10.76;100.00;102057.25;5062717;28;19996;-81
2023/09/15 03:08:15;;;;;;;;;;;;;;;10.73;100.00;102055.53;5063518;28;19928;-81
2023/09/15 03:11:01;;;;;;;;;;;;;;;10.71;100.00;102058.25;5063095;28;20480;-81
2023/09/15 03:13:47;;;;;;;;;;;;;;;10.69;100.00;102057.41;5048541;28;20467;-82
2023/09/15 03:16:32;;;;;;;;;;;;;;;10.67;100.00;102056.59;5047323;28;20097;-81
2023/09/15 03:19:19;;;;;;;;;;;;;;;10.67;100.00;102053.09;5060642;28;19934;-81
2023/09/15 03:22:05;;;;;;;;;;;;;;;10.66;100.00;102056.63;5058648;28;19977;-82
2023/09/15 03:24:50;;;;;;;;;;;;;;;10.64;100.00;102058.44;5059396;28;20299;-81
2023/09/15 03:27:36;;;;;;;;;;;;;;;10.62;100.00;102053.19;5057441;28;19942;-81
2023/09/15 03:30:22;;;;;;;;;;;;;;;10.62;100.00;102049.69;5058464;28;20434;-82
2023/09/15 03:33:07;;;;;;;;;;;;;;;10.59;100.00;102050.63;5061466;28;19947;-81
2023/09/15 03:35:53;;;;;;;;;;;;;;;10.58;100.00;102049.75;5056802;28;20176;-82
2023/09/15 03:38:41;;;;;;;;;;;;;;;10.58;100.00;102038.31;5057453;28;19976;-81
2023/09/15 03:41:27;;;;;;;;;;;;;;;10.55;100.00;102038.38;5042681;28;19936;-81
2023/09/15 03:44:13;;;;;;;;;;;;;;;10.55;100.00;102036.59;5057275;28;19928;-81
2023/09/15 03:47:02;;;;;;;;;;;;;;;10.53;100.00;102032.25;5059781;28;19970;-80
2023/09/15 03:49:47;;;;;;;;;;;;;;;10.50;100.00;102035.00;5059405;28;20266;-81
2023/09/15 03:52:33;;;;;;;;;;;;;;;10.48;100.00;102042.09;5046321;28;20867;-81
2023/09/15 03:55:19;;;;;;;;;;;;;;;10.47;100.00;102035.94;5058630;28;19950;-81
2023/09/15 03:58:04;;;;;;;;;;;;;;;10.45;100.00;102037.72;5058190;28;19932;-82
2023/09/15 04:00:50;;;;;;;;;;;;;;;10.45;100.00;102032.44;5048876;28;20142;-81
2023/09/15 04:03:36;;;;;;;;;;;;;;;10.42;100.00;102022.78;5062084;28;19928;-81
2023/09/15 04:06:21;;;;;;;;;;;;;;;10.41;100.00;102034.28;5061444;28;20132;-82
2023/09/15 04:09:12;;;;;;;;;;;;;;;10.42;100.00;102032.50;5059883;28;19959;-81
2023/09/15 04:11:57;;;;;;;;;;;;;;;10.40;100.00;102032.53;5059954;28;19982;-81
2023/09/15 04:14:43;;;;;;;;;;;;;;;10.38;100.00;102026.41;5060494;28;19948;-80
2023/09/15 04:17:29;;;;;;;;;;;;;;;10.36;100.00;102020.31;5059957;28;20315;-81
2023/09/15 04:20:15;;;;;;;;;;;;;;;10.34;100.00;102024.75;5061035;28;19957;-80
2023/09/15 04:23:00;;;;;;;;;;;;;;;10.33;100.00;102023.91;5059068;28;20340;-81
2023/09/15 04:25:47;;;;;;;;;;;;;;;10.32;100.00;102022.16;5058237;28;19978;-81
2023/09/15 04:28:33;;;;;;;;;;;;;;;10.31;100.00;102014.25;5045101;28;19924;-81
2023/09/15 04:31:19;;;;;;;;;;;;;;;10.31;100.00;102012.44;5055651;28;20326;-82
2023/09/15 04:34:04;;;;;;;;;;;;;;;10.31;100.00;102009.81;4992822;28;1832109;-81
2023/09/15 04:36:50;;;;;;;;;;;;;;;10.33;100.00;102012.44;5043123;28;20035;-81
2023/09/15 04:39:38;;;;;;;;;;;;;;;10.35;100.00;102004.44;5043756;28;20394;-81
2023/09/15 04:42:24;;;;;;;;;;;;;;;10.35;100.00;102009.75;5056404;28;19932;-81
2023/09/15 04:45:09;;;;;;;;;;;;;;;10.36;100.00;102009.72;5058574;28;19933;-81
2023/09/15 04:47:55;;;;;;;;;;;;;;;10.34;100.00;102016.81;5047330;28;19975;-81
2023/09/15 04:50:41;;;;;;;;;;;;;;;10.33;100.00;102017.72;5047692;28;19928;-80
2023/09/15 04:53:27;;;;;;;;;;;;;;;10.31;100.00;102019.53;5050359;28;20355;-82
2023/09/15 04:56:12;;;;;;;;;;;;;;;10.29;100.00;102018.69;5061215;28;19967;-80
2023/09/15 04:58:58;;;;;;;;;;;;;;;10.28;100.00;102019.59;5056119;28;19935;-81
2023/09/15 05:01:44;;;;;;;;;;;;;;;10.25;100.00;102025.00;5058571;28;19928;-81
2023/09/15 05:04:30;;;;;;;;;;;;;;;10.26;100.00;102032.03;5043077;28;20859;-78
2023/09/15 05:07:15;;;;;;;;;;;;;;;10.24;100.00;102029.41;5060172;28;22191;-81
2023/09/15 05:10:01;;;;;;;;;;;;;;;10.23;100.00;102032.13;5074215;28;20839;-82
2023/09/15 05:12:46;;;;;;;;;;;;;;;10.23;100.00;102032.13;5048300;28;19931;-80
2023/09/15 05:15:34;;;;;;;;;;;;;;;10.22;100.00;102025.06;5059021;28;19935;-80
2023/09/15 05:18:19;;;;;;;;;;;;;;;10.22;100.00;102028.59;5059161;28;20795;-81
2023/09/15 05:21:05;;;;;;;;;;;;;;;10.21;100.00;102031.25;5058031;28;19933;-83
2023/09/15 05:23:51;;;;;;;;;;;;;;;10.23;100.00;102032.13;5060020;28;19924;-82
2023/09/15 05:26:36;;;;;;;;;;;;;;;10.24;100.00;102023.25;5059163;28;20374;-83
2023/09/15 05:29:22;;;;;;;;;;;;;;;10.24;100.00;102023.25;5058438;28;20094;-83
2023/09/15 05:32:08;;;;;;;;;;;;;;;10.27;100.00;102021.41;5054523;28;20458;-83
2023/09/15 05:34:53;;;;;;;;;;;;;;;10.27;100.00;102026.69;5044649;28;19939;-83
2023/09/15 05:37:42;;;;;;;;;;;;;;;10.28;100.00;102024.91;5055359;28;20061;-79
2023/09/15 05:40:28;;;;;;;;;;;;;;;10.28;100.00;102017.84;5045250;28;19924;-80
2023/09/15 05:43:13;;;;;;;;;;;;;;;10.28;100.00;102022.25;5045175;28;19954;-81
2023/09/15 05:45:59;;;;;;;;;;;;;;;10.26;100.00;102024.97;5060512;28;19968;-84
2023/09/15 05:48:45;;;;;;;;;;;;;;;10.25;100.00;102025.00;5059559;28;20606;-81
2023/09/15 05:51:30;;;;;;;;;;;;;;;10.25;100.00;102027.63;5046022;28;20371;-82
2023/09/15 05:54:16;;;;;;;;;;;;;;;10.25;100.00;102030.28;5060190;28;20314;-82
2023/09/15 05:57:02;;;;;;;;;;;;;;;10.24;100.00;102029.41;5062337;28;19927;-81
2023/09/15 05:59:47;;;;;;;;;;;;;;;10.27;100.00;102028.47;5051636;28;19931;-81
2023/09/15 06:02:33;;;;;;;;;;;;;;;10.27;100.00;102036.41;5036601;28;19940;-81
2023/09/15 06:05:21;;;;;;;;;;;;;;;10.26;100.00;102027.59;5057704;28;20079;-81
2023/09/15 06:08:08;;;;;;;;;;;;;;;10.27;100.00;102032.00;5042687;28;19925;-80
2023/09/15 06:10:53;;;;;;;;;;;;;;;10.30;100.00;102033.69;5062269;28;20333;-83
2023/09/15 06:13:41;;;;;;;;;;;;;;;10.30;100.00;102031.91;5062262;28;19939;-82
2023/09/15 06:16:27;;;;;;;;;;;;;;;10.33;100.00;102033.59;5058797;28;19935;-80
2023/09/15 06:19:12;;;;;;;;;;;;;;;10.37;100.00;102040.56;5048519;28;19935;-80
2023/09/15 06:21:58;;;;;;;;;;;;;;;10.40;100.00;102035.19;5062364;28;19928;-81
2023/09/15 06:24:44;;;;;;;;;;;;;;;10.45;100.00;102035.97;5061652;28;19938;-81
2023/09/15 06:27:32;;;;;;;;;;;;;;;10.50;100.00;102042.94;5063011;28;19933;-81
2023/09/15 06:30:18;;;;;;;;;;;;;;;10.54;100.00;102040.16;5059558;28;19924;-82
2023/09/15 06:33:04;;;;;;;;;;;;;;;10.58;100.00;102039.16;5060925;28;20378;-81
2023/09/15 06:35:49;;;;;;;;;;;;;;;10.62;100.00;102034.66;5045350;28;20164;-79
2023/09/15 06:38:35;;;;;;;;;;;;;;;10.67;100.00;102042.50;5047997;28;20046;-80
2023/09/15 06:41:20;;;;;;;;;;;;;;;10.69;100.00;102044.16;5059657;28;19924;-79
2023/09/15 06:44:12;;;;;;;;;;;;;;;10.76;100.00;102038.69;5061974;28;19928;-78
2023/09/15 06:46:58;;;;;;;;;;;;;;;10.81;100.00;102040.34;5059507;28;19928;-83
2023/09/15 06:49:43;;;;;;;;;;;;;;;10.86;100.00;102037.56;5058226;28;20508;-83
2023/09/15 06:52:30;;;;;;;;;;;;;;;10.94;100.00;102034.66;5060420;28;21895;-83
2023/09/15 06:55:16;;;;;;;;;;;;;;;11.02;100.00;102040.66;5057374;28;20061;-85
2023/09/15 06:58:01;;;;;;;;;;;;;;;11.09;100.00;102036.03;5054917;28;21701;-82
2023/09/15 07:00:47;;;;;;;;;;;;;;;11.17;100.00;102031.38;5062799;28;19928;-84
2023/09/15 07:03:33;;;;;;;;;;;;;;;11.25;100.00;102028.50;5075030;28;19928;-85
2023/09/15 07:06:19;;;;;;;;;;;;;;;11.33;100.00;102036.25;5046574;28;19928;-84
2023/09/15 07:09:04;;;;;;;;;;;;;;;11.41;100.00;102039.53;5062304;28;19932;-85
2023/09/15 07:11:50;;;;;;;;;;;;;;;11.50;100.00;102025.97;5049255;28;19936;-85
2023/09/15 07:14:36;;;;;;;;;;;;;;;11.60;100.00;102029.22;5050028;28;20449;-83
2023/09/15 07:17:21;;;;;;;;;;;;;;;11.71;100.00;102028.03;5062118;28;19975;-84
2023/09/15 07:20:07;;;;;;;;;;;;;;;11.80;100.00;102033.91;5063510;28;19932;-84
2023/09/15 07:22:53;;;;;;;;;;;;;;;11.90;100.00;102025.66;5047796;28;19932;-85
2023/09/15 07:25:38;;;;;;;;;;;;;;;11.98;100.00;102026.25;5061783;28;20061;-87
2023/09/15 07:28:24;;;;;;;;;;;;;;;12.12;100.00;102024.97;5062200;28;19932;-85
2023/09/15 07:31:10;;;;;;;;;;;;;;;12.22;100.00;102031.72;5046784;28;19963;-86
2023/09/15 07:33:55;;;;;;;;;;;;;;;12.30;100.00;102019.06;5038868;28;19939;-85
2023/09/15 07:36:41;;;;;;;;;;;;;;;12.38;100.00;102023.25;5049659;28;19998;-85
2023/09/15 07:39:29;;;;;;;;;;;;;;;12.47;100.00;102015.81;5062455;28;19940;-85
2023/09/15 07:42:15;;;;;;;;;;;;;;;12.58;100.00;102018.09;5062216;28;19936;-85
2023/09/15 07:45:03;;;;;;;;;;;;;;;12.66;100.00;102011.66;5062050;28;19932;-86
2023/09/15 07:47:48;;;;;;;;;;;;;;;12.76;100.00;101999.78;5050009;28;19924;-85
2023/09/15 07:50:34;;;;;;;;;;;;;;;12.87;100.00;102007.34;5049538;28;19936;-84
2023/09/15 07:53:21;;;;;;;;;;;;;;;12.93;100.00;102006.25;5062526;28;20076;-84
2023/09/15 07:56:07;;;;;;;;;;;;;;;13.00;100.00;102007.75;5048356;28;19939;-84
2023/09/15 07:58:53;;;;;;;;;;;;;;;13.09;100.00;102011.88;5049016;28;20096;-85
2023/09/15 08:01:40;;;;;;;;;;;;;;;13.18;100.00;102001.75;5060887;28;19928;-85
2023/09/15 08:04:26;;;;;;;;;;;;;;;13.29;100.00;102006.66;5062212;28;20020;-84
2023/09/15 08:07:11;;;;;;;;;;;;;;;13.38;100.00;102005.44;5060276;28;19928;-83
2023/09/15 08:09:58;;;;;;;;;;;;;;;13.49;100.00;102006.84;5060935;28;20072;-84
2023/09/15 08:12:44;;;;;;;;;;;;;;;13.58;100.00;102007.34;5061694;28;19967;-84
2023/09/15 08:15:30;;;;;;;;;;;;;;;13.67;100.00;102008.78;5057152;28;19978;-85
2023/09/15 08:18:15;;;;;;;;;;;;;;;13.75;100.00;101999.63;5048109;28;19936;-86
2023/09/15 08:21:01;;;;;;;;;;;;;;;13.83;100.00;101986.84;5059767;28;20002;-85
2023/09/15 08:23:47;;;;;;;;;;;;;;;13.93;100.00;101995.31;5059520;28;19928;-85
2023/09/15 08:26:32;;;;;;;;;;;;;;;14.05;100.00;101986.00;5044804;28;19939;-84
2023/09/15 08:29:18;;;;;;;;;;;;;;;14.14;100.00;101990.91;5070912;28;19940;-83
2023/09/15 08:32:04;;;;;;;;;;;;;;;14.21;100.00;101984.41;5039488;28;20151;-82
2023/09/15 08:34:50;;;;;;;;;;;;;;;14.31;100.00;101986.66;5061260;28;19925;-83
2023/09/15 08:37:35;;;;;;;;;;;;;;;14.44;100.00;101987.84;5060932;28;19928;-83
2023/09/15 08:40:21;;;;;;;;;;;;;;;14.50;100.00;101987.59;5061042;28;20019;-83
2023/09/15 08:43:07;;;;;;;;;;;;;;;14.58;100.00;101983.72;5049841;28;20367;-85
2023/09/15 08:45:52;;;;;;;;;;;;;;;14.66;100.00;101986.94;5056409;28;20268;-83
2023/09/15 08:48:39;;;;;;;;;;;;;;;14.73;100.00;101985.72;5046898;28;19928;-82
2023/09/15 08:51:25;;;;;;;;;;;;;;;14.86;100.00;101987.88;5060052;28;19985;-82
2023/09/15 08:54:12;;;;;;;;;;;;;;;14.95;100.00;101984.75;5061381;28;20929;-83
2023/09/15 08:56:58;;;;;;;;;;;;;;;15.04;100.00;101992.31;5058628;28;19924;-83
2023/09/15 08:59:43;;;;;;;;;;;;;;;15.14;100.00;101992.78;5050556;28;19977;-82
2023/09/15 09:02:29;;;;;;;;;;;;;;;15.24;100.00;101992.34;5062557;28;19967;-84
2023/09/15 09:05:16;;;;;;;;;;;;;;;15.33;100.00;101991.91;5048485;28;19928;-83
2023/09/15 09:08:01;;;;;;;;;;;;;;;15.39;100.00;101985.41;5044126;28;20397;-84
2023/09/15 09:10:47;;;;;;;;;;;;;;;15.45;100.00;101991.34;5061361;28;19957;-83
2023/09/15 09:13:36;;;;;;;;;;;;;;;15.48;100.00;101979.66;5046116;28;19929;-83
2023/09/15 09:16:22;;;;;;;;;;;;;;;15.58;100.00;101986.25;5045908;28;19942;-82
2023/09/15 09:19:08;;;;;;;;;;;;;;;15.72;100.00;101987.38;5045577;28;19928;-82
2023/09/15 09:21:59;;;;;;;;;;;;;;;15.81;100.00;101984.28;5043015;28;20367;-84
2023/09/15 09:24:52;;;;;;;;;;;;;;;15.84;100.00;101981.44;5063452;28;20276;-87
2023/09/15 09:27:37;;;;;;;;;;;;;;;15.91;100.00;101981.13;5045455;28;21179;-84
2023/09/15 09:30:26;;;;;;;;;;;;;;;15.98;100.00;101979.91;5047907;28;19934;-83
2023/09/15 09:33:12;;;;;;;;;;;;;;;16.09;100.00;101974.03;5048316;28;19939;-84
2023/09/15 09:36:10;;;;;;;;;;;;;;;16.16;100.00;101975.44;5062830;28;19940;-85
2023/09/15 09:38:56;;;;;;;;;;;;;;;16.22;100.00;101975.13;5046639;28;19932;-83
2023/09/15 09:41:43;;;;;;;;;;;;;;;16.28;100.00;101976.63;5051439;28;20379;-87
2023/09/15 09:44:30;;;;;;;;;;;;;;;16.36;100.00;101971.75;5062968;28;20021;-89
2023/09/15 09:47:17;;;;;;;;;;;;;;;16.43;100.00;101973.16;5063718;28;19935;-89
2023/09/15 09:50:07;;;;;;;;;;;;;;;16.51;100.00;101975.41;5048756;28;19967;-89
2023/09/15 09:52:56;;;;;;;;;;;;;;;16.58;100.00;101980.44;5063975;28;19939;-91
2023/09/15 09:55:42;;;;;;;;;;;;;;;16.64;100.00;101977.44;5066339;28;19924;-90
2023/09/15 09:58:28;;;;;;;;;;;;;;;16.64;100.00;101972.97;5067047;28;19940;-85
2023/09/15 10:01:14;;;;;;;;;;;;;;;16.68;100.00;101969.16;5063513;28;19924;-85
2023/09/15 10:04:00;;;;;;;;;;;;;;;16.76;100.00;101963.41;5047501;28;19928;-85
2023/09/15 10:06:45;;;;;;;;;;;;;;;16.78;100.00;101958.00;5061095;28;19989;-84
2023/09/15 10:09:31;;;;;;;;;;;;;;;16.84;100.00;101960.34;5047472;28;19924;-86
2023/09/15 10:12:17;;;;;;;;;;;;;;;16.88;100.00;101956.53;5072953;27;20035;-87
2023/09/15 10:15:04;;;;;;;;;;;;;;;16.93;100.00;101953.59;5061839;28;20359;-83
2023/09/15 10:17:50;;;;;;;;;;;;;;;17.01;100.00;101953.19;5048362;28;19928;-86
2023/09/15 10:20:36;;;;;;;;;;;;;;;17.03;100.00;101954.00;5047922;28;19928;-88
2023/09/15 10:23:22;;;;;;;;;;;;;;;16.98;100.00;101948.88;5051022;28;19928;-85
2023/09/15 10:26:09;;;;;;;;;;;;;;;17.01;100.00;101939.81;5059887;28;19924;-87
2023/09/15 10:28:55;;;;;;;;;;;;;;;17.09;100.00;101940.28;5038838;28;19932;-84
2023/09/15 10:31:44;;;;;;;;;;;;;;;17.17;100.00;101940.69;5062078;28;19924;-84
2023/09/15 10:34:31;;;;;;;;;;;;;;;17.25;100.00;101937.59;5062335;28;20353;-89
2023/09/15 10:37:16;;;;;;;;;;;;;;;17.26;100.00;101933.13;5057380;28;19935;-86
2023/09/15 10:40:02;;;;;;;;;;;;;;;17.27;100.00;101926.81;5050430;28;19928;-86
2023/09/15 10:42:51;;;;;;;;;;;;;;;17.27;100.00;101925.00;5059663;28;19928;-87
2023/09/15 10:45:37;;;;;;;;;;;;;;;17.29;100.00;101927.59;5060048;28;19924;-87
2023/09/15 10:48:23;;;;;;;;;;;;;;;17.28;100.00;101920.53;5059062;28;19943;-86
2023/09/15 10:51:12;;;;;;;;;;;;;;;17.28;100.00;101921.41;5058810;28;19932;-86
2023/09/15 10:53:59;;;;;;;;;;;;;;;17.25;100.00;101916.19;5045716;28;19981;-88
2023/09/15 10:56:45;;;;;;;;;;;;;;;17.27;100.00;101921.47;5056360;28;19928;-87
2023/09/15 10:59:31;;;;;;;;;;;;;;;17.29;100.00;101912.41;5060135;28;19989;-87
2023/09/15 11:02:17;;;;;;;;;;;;;;;17.33;100.00;101913.09;5058537;28;19929;-87
2023/09/15 11:05:04;;;;;;;;;;;;;;;17.34;100.00;101909.47;5059406;28;19932;-85
2023/09/15 11:07:49;;;;;;;;;;;;;;;17.34;100.00;101910.31;5070417;28;19939;-87
2023/09/15 11:10:35;;;;;;;;;;;;;;;17.35;100.00;101905.84;5044808;28;21732;-88
2023/09/15 11:13:21;;;;;;;;;;;;;;;17.37;100.00;101903.91;5059881;28;19932;-87
2023/09/15 11:16:07;;;;;;;;;;;;;;;17.40;100.00;101903.75;5049672;28;20047;-89
2023/09/15 11:18:52;;;;;;;;;;;;;;;17.47;100.00;101890.88;5049203;28;20041;-87
2023/09/15 11:21:41;;;;;;;;;;;;;;;17.50;100.00;101886.19;5060863;28;20380;-88
2023/09/15 11:24:26;;;;;;;;;;;;;;;17.47;100.00;101883.72;5048217;28;19939;-88
2023/09/15 11:27:14;;;;;;;;;;;;;;;17.50;99.94;101877.31;5057142;28;19947;-87
2023/09/15 11:30:04;;;;;;;;;;;;;;;17.52;100.00;101870.06;5057575;28;19928;-90
2023/09/15 11:32:49;;;;;;;;;;;;;;;17.51;100.00;101869.22;5045414;28;19947;-87
2023/09/15 11:35:35;;;;;;;;;;;;;;;17.51;100.00;101873.69;5059626;28;20784;-88
2023/09/15 11:38:21;;;;;;;;;;;;;;;17.53;100.00;101870.94;5062906;28;19928;-88
2023/09/15 11:41:07;;;;;;;;;;;;;;;17.59;100.00;101866.06;5055467;28;20402;-85
2023/09/15 11:43:52;;;;;;;;;;;;;;;17.64;100.00;101863.97;5062574;28;19943;-91
2023/09/15 11:46:39;;;;;;;;;;;;;;;17.70;100.00;101864.56;5064650;28;20387;-86
2023/09/15 11:49:25;;;;;;;;;;;;;;;17.77;100.00;101865.94;5030992;28;19931;-87
2023/09/15 11:52:11;;;;;;;;;;;;;;;17.78;100.00;101860.47;5048403;28;19928;-86
2023/09/15 11:54:57;;;;;;;;;;;;;;;17.82;100.00;101854.94;5066402;28;20478;-86
2023/09/15 11:57:43;;;;;;;;;;;;;;;17.86;100.00;101856.50;5062194;28;20027;-87
2023/09/15 12:00:32;;;;;;;;;;;;;;;17.87;100.00;101840.31;5039168;28;19936;-87
2023/09/15 12:03:18;;;;;;;;;;;;;;;17.90;100.00;101833.91;5051868;28;20263;-87
2023/09/15 12:06:05;;;;;;;;;;;;;;;17.92;100.00;101843.56;5060099;28;19932;-88
2023/09/15 12:08:51;;;;;;;;;;;;;;;17.95;99.60;101842.53;5057626;28;20363;-88
2023/09/15 12:11:39;;;;;;;;;;;;;;;17.99;100.00;101835.16;5059338;28;19929;-85
2023/09/15 12:14:25;;;;;;;;;;;;;;;18.07;100.00;101827.53;5057498;28;19975;-86
2023/09/15 12:17:10;;;;;;;;;;;;;;;18.09;99.45;101830.97;5044518;28;21041;-87
2023/09/15 12:20:00;;;;;;;;;;;;;;;18.11;98.99;101831.75;5058536;28;19939;-86
2023/09/15 12:22:45;;;;;;;;;;;;;;;18.15;98.67;101829.75;5043536;28;19936;-87
2023/09/15 12:25:31;;;;;;;;;;;;;;;18.18;99.83;101825.06;5044560;28;19963;-86
2023/09/15 12:28:16;;;;;;;;;;;;;;;18.25;97.96;101820.16;5058767;28;19939;-88
2023/09/15 12:31:02;;;;;;;;;;;;;;;18.27;98.14;101820.06;5044057;28;20063;-89
2023/09/15 12:33:52;;;;;;;;;;;;;;;18.34;96.29;101820.56;5043642;28;19932;-89
2023/09/15 12:36:38;;;;;;;;;;;;;;;18.45;98.34;101826.09;5054930;28;20362;-88
2023/09/15 12:39:24;;;;;;;;;;;;;;;18.44;96.32;101835.09;5057178;28;20066;-89
2023/09/15 12:42:10;;;;;;;;;;;;;;;18.39;97.56;101826.47;5044658;28;19967;-88
2023/09/15 12:44:55;;;;;;;;;;;;;;;18.36;96.97;101826.69;5066098;28;19932;-89
2023/09/15 12:47:41;;;;;;;;;;;;;;;18.34;97.88;101828.59;5059080;28;20028;-86
2023/09/15 12:50:26;;;;;;;;;;;;;;;18.37;98.23;101823.03;5056795;28;19928;-89
2023/09/15 12:53:12;;;;;;;;;;;;;;;18.35;97.35;101819.59;5058426;28;20402;-91
2023/09/15 12:56:00;;;;;;;;;;;;;;;18.35;98.75;101814.25;5058746;28;20413;-88
2023/09/15 12:58:45;;;;;;;;;;;;;;;18.39;99.91;101826.47;5062227;28;20337;-90
2023/09/15 13:01:31;;;;;;;;;;;;;;;18.44;97.30;101824.38;5057929;28;20007;-90
2023/09/15 13:04:19;;;;;;;;;;;;;;;18.50;97.43;101823.97;5061359;28;19943;-89
2023/09/15 13:07:05;;;;;;;;;;;;;;;18.51;98.39;101827.53;5063116;28;19929;-90
2023/09/15 13:09:51;;;;;;;;;;;;;;;18.52;96.58;101815.84;5061365;28;19932;-91
2023/09/15 13:12:37;;;;;;;;;;;;;;;18.51;96.56;101814.97;5058413;28;20128;-86
2023/09/15 13:15:23;;;;;;;;;;;;;;;18.55;96.99;101811.16;5045269;28;20156;-89
2023/09/15 13:18:16;;;;;;;;;;;;;;;18.58;97.85;101802.91;5058365;28;19932;-89
2023/09/15 13:21:02;;;;;;;;;;;;;;;18.62;97.87;101805.41;5067447;28;20030;-87
2023/09/15 13:23:48;;;;;;;;;;;;;;;18.61;98.65;101803.69;5041275;28;19935;-89
2023/09/15 13:26:33;;;;;;;;;;;;;;;18.62;98.12;101803.56;5069541;28;20402;-85
2023/09/15 13:29:19;;;;;;;;;;;;;;;18.63;96.55;101802.59;5031310;28;21525;-84
2023/09/15 13:32:05;;;;;;;;;;;;;;;18.72;94.81;101793.09;5054313;28;20657;-84
2023/09/15 13:34:53;;;;;;;;;;;;;;;18.83;94.78;101797.75;5051640;28;20382;-85
2023/09/15 13:37:38;;;;;;;;;;;;;;;18.93;95.37;101789.97;5043739;28;19924;-84
2023/09/15 13:40:24;;;;;;;;;;;;;;;18.95;94.51;101785.38;5054624;28;19936;-86
2023/09/15 13:43:10;;;;;;;;;;;;;;;18.89;94.06;101791.16;5055994;28;19936;-85
2023/09/15 13:45:56;;;;;;;;;;;;;;;18.76;94.28;101786.59;5058796;28;19928;-86
2023/09/15 13:48:41;;;;;;;;;;;;;;;18.70;95.03;101781.63;5040563;28;19928;-86
2023/09/15 13:51:27;;;;;;;;;;;;;;;18.82;95.12;101778.13;5068846;28;19932;-86
2023/09/15 13:54:13;;;;;;;;;;;;;;;18.86;94.63;101782.31;5056529;28;19971;-90
2023/09/15 13:56:58;;;;;;;;;;;;;;;18.89;93.63;101767.84;5061720;28;20078;-82
2023/09/15 13:59:44;;;;;;;;;;;;;;;18.89;95.31;101773.22;5059756;28;19936;-83
2023/09/15 14:02:30;;;;;;;;;;;;;;;18.92;93.21;101770.34;5060381;28;20382;-83
2023/09/15 14:05:16;;;;;;;;;;;;;;;18.93;93.38;101765.81;5061116;28;20450;-81